Time;durP1;ratioP1;P1;durP2;ratioP2;P2;SDS_P1;SDS_P2;PMS_P1;PMS_P2;Temp;Humidity;BMP_temperature;BMP_pressure;BME280_temperature;BME280_humidity;BME280_pressure;Samples;Min_cycle;Max_cycle;Signal;HPM_P1;HPM_P2
2023/03/12 10:53:51;;;;;;;7.68;3.10;;;14.70;1.00;;;;;;4935724;29;20120;-62
2023/03/12 10:56:19;;;;;;;8.80;3.45;;;14.70;1.00;;;;;;4923778;29;20043;-61
2023/03/12 10:58:50;;;;;;;6.63;3.22;;;14.80;1.00;;;;;;4924398;29;20027;-62
2023/03/12 11:01:24;;;;;;;6.97;2.90;;;14.80;1.00;;;;;;4925864;29;20036;-61
2023/03/12 11:03:51;;;;;;;6.43;3.13;;;14.90;1.00;;;;;;4925496;29;20075;-62
2023/03/12 11:06:26;;;;;;;7.05;2.70;;;15.00;1.00;;;;;;4927801;29;20028;-62
2023/03/12 11:09:10;;;;;;;8.00;3.30;;;15.00;1.00;;;;;;4936511;29;20020;-62
2023/03/12 11:11:36;;;;;;;5.82;3.03;;;15.00;1.00;;;;;;4937591;29;20027;-62
2023/03/12 11:14:21;;;;;;;4.93;3.17;;;15.10;1.00;;;;;;4936491;29;20042;-62
2023/03/12 11:16:48;;;;;;;6.85;2.75;;;15.20;1.00;;;;;;4934499;29;20035;-62
2023/03/12 11:19:32;;;;;;;6.00;3.10;;;15.30;1.00;;;;;;4937271;29;20062;-62
2023/03/12 11:21:59;;;;;;;8.75;3.33;;;15.30;1.00;;;;;;4934506;29;20036;-62
2023/03/12 11:24:25;;;;;;;5.07;2.67;;;15.30;1.00;;;;;;4935360;29;20061;-62
2023/03/12 11:27:02;;;;;;;7.65;2.83;;;15.40;1.00;;;;;;4933896;29;20047;-62
2023/03/12 11:29:38;;;;;;;7.30;2.97;;;15.40;1.00;;;;;;4931860;29;20027;-62
2023/03/12 11:32:19;;;;;;;7.22;3.65;;;15.40;1.00;;;;;;4931547;29;20020;-62
2023/03/12 11:34:48;;;;;;;6.80;2.97;;;15.50;1.00;;;;;;4930224;29;20047;-62
2023/03/12 11:37:37;;;;;;;8.23;2.95;;;15.50;1.00;;;;;;4934575;29;20127;-62
2023/03/12 11:40:17;;;;;;;7.38;2.92;;;15.70;1.00;;;;;;4935156;29;20473;-62
2023/03/12 11:43:26;;;;;;;7.78;2.83;;;15.60;1.00;;;;;;4934417;29;20059;-62
2023/03/12 11:46:13;;;;;;;6.22;3.33;;;15.60;1.00;;;;;;4930406;29;20032;-62
2023/03/12 11:48:45;;;;;;;6.70;3.10;;;15.70;1.00;;;;;;4932982;29;20114;-62
2023/03/12 11:51:11;;;;;;;6.72;3.00;;;15.70;1.00;;;;;;4936026;29;20043;-62
2023/03/12 11:54:10;;;;;;;7.07;3.10;;;15.80;1.00;;;;;;4934835;29;20102;-63
2023/03/12 11:56:45;;;;;;;12.10;3.25;;;16.00;1.00;;;;;;4926385;29;20087;-62
2023/03/12 11:59:10;;;;;;;;;;;16.10;1.00;;;;;;4933938;29;20122;-61
2023/03/12 12:01:52;;;;;;;6.88;3.72;;;16.10;1.00;;;;;;4936840;29;19997;-61
2023/03/12 12:04:47;;;;;;;5.07;3.42;;;16.10;1.00;;;;;;4921810;29;20110;-61
2023/03/12 12:07:24;;;;;;;11.43;4.35;;;16.20;1.00;;;;;;4937313;29;20190;-61
2023/03/12 12:10:08;;;;;;;8.25;3.30;;;16.30;1.00;;;;;;4930759;29;20034;-62
2023/03/12 12:12:45;;;;;;;9.82;5.65;;;16.40;1.00;;;;;;4937299;29;20397;-61
2023/03/12 12:16:00;;;;;;;7.32;3.90;;;16.50;1.00;;;;;;4928754;29;20036;-61
2023/03/12 12:18:52;;;;;;;11.00;5.30;;;16.60;1.00;;;;;;4872022;29;20037;-61
2023/03/12 12:21:53;;;;;;;7.10;3.88;;;16.70;1.00;;;;;;4865350;29;20029;-61
2023/03/12 12:24:55;;;;;;;6.65;4.13;;;16.70;1.00;;;;;;4859681;29;20050;-61
2023/03/12 12:27:28;;;;;;;9.38;4.70;;;16.90;1.00;;;;;;4927009;29;20154;-62
2023/03/12 12:30:31;;;;;;;7.50;3.78;;;17.00;1.00;;;;;;4936722;29;20098;-61
2023/03/12 12:33:15;;;;;;;9.13;4.00;;;17.10;1.00;;;;;;4931270;29;20042;-61
2023/03/12 12:35:42;;;;;;;12.75;6.10;;;17.10;1.00;;;;;;4934806;29;20481;-61
2023/03/12 12:38:15;;;;;;;18.42;6.47;;;17.30;1.00;;;;;;4936704;29;20028;-61
2023/03/12 12:40:48;;;;;;;10.88;4.68;;;17.30;1.00;;;;;;4936215;29;20394;-62
2023/03/12 12:43:17;;;;;;;7.97;5.35;;;17.50;1.00;;;;;;4936601;29;20039;-62
2023/03/12 12:45:43;;;;;;;13.18;5.45;;;17.60;1.00;;;;;;4936081;29;20088;-61
2023/03/12 12:48:22;;;;;;;11.55;4.10;;;17.80;1.00;;;;;;4924321;29;20486;-61
2023/03/12 12:50:50;;;;;;;7.28;4.10;;;17.90;1.00;;;;;;4936296;29;20154;-61
2023/03/12 12:53:36;;;;;;;8.98;6.32;;;18.00;1.00;;;;;;4936316;29;20066;-62
2023/03/12 12:56:30;;;;;;;11.98;5.82;;;18.10;1.00;;;;;;4935902;29;20123;-61
2023/03/12 12:59:24;;;;;;;9.88;5.45;;;18.30;1.00;;;;;;4933229;29;20447;-52
2023/03/12 13:01:53;;;;;;;9.23;5.47;;;18.50;1.00;;;;;;4925305;29;20039;-55
2023/03/12 13:04:37;;;;;;;6.28;3.17;;;18.60;1.00;;;;;;4935123;29;20410;-54
2023/03/12 13:07:23;;;;;;;8.18;4.22;;;18.90;1.00;;;;;;4936140;29;20474;-55
2023/03/12 13:09:54;;;;;;;10.40;4.00;;;19.10;1.00;;;;;;4924563;29;20095;-50
2023/03/12 13:12:29;;;;;;;7.10;3.63;;;19.20;1.00;;;;;;4934931;29;20036;-50
2023/03/12 13:14:56;;;;;;;6.45;4.03;;;19.30;1.00;;;;;;4935200;29;20405;-51
2023/03/12 13:17:55;;;;;;;8.05;3.58;;;19.50;1.00;;;;;;4935935;29;20477;-49
2023/03/12 13:20:27;;;;;;;7.05;3.30;;;19.60;1.00;;;;;;4934672;29;20043;-49
2023/03/12 13:23:25;;;;;;;7.43;4.10;;;19.60;1.00;;;;;;4936191;29;20032;-49
2023/03/12 13:25:51;;;;;;;10.10;4.15;;;19.70;1.00;;;;;;4904000;29;20032;-49
2023/03/12 13:28:34;;;;;;;6.22;3.63;;;19.90;1.00;;;;;;4936036;29;20034;-52
2023/03/12 13:31:21;;;;;;;5.43;3.85;;;20.00;1.00;;;;;;4931477;29;20095;-48
2023/03/12 13:33:52;;;;;;;9.10;4.13;;;19.90;1.00;;;;;;4932623;29;20122;-55
2023/03/12 13:36:24;;;;;;;8.43;4.78;;;20.00;1.00;;;;;;4932992;29;20035;-53
2023/03/12 13:38:53;;;;;;;9.35;4.18;;;20.10;1.00;;;;;;4934441;29;20039;-53
2023/03/12 13:41:33;;;;;;;8.38;3.95;;;20.10;1.00;;;;;;4935770;29;20039;-52
2023/03/12 13:43:59;;;;;;;8.65;4.50;;;20.00;1.00;;;;;;4935132;29;20032;-52
2023/03/12 13:46:34;;;;;;;8.35;4.55;;;20.00;1.00;;;;;;4933226;29;20024;-55
2023/03/12 13:49:04;;;;;;;8.48;3.83;;;19.90;1.00;;;;;;4935695;29;20038;-49
2023/03/12 13:51:30;;;;;;;12.35;5.97;;;19.90;1.00;;;;;;4933679;29;20032;-55
2023/03/12 13:53:59;;;;;;;5.82;3.83;;;19.80;1.00;;;;;;4931516;29;20062;-55
2023/03/12 13:56:28;;;;;;;5.50;3.67;;;19.70;1.00;;;;;;4925730;29;20047;-52
2023/03/12 13:59:01;;;;;;;6.78;3.80;;;19.60;1.00;;;;;;4934753;29;20461;-52
2023/03/12 14:01:45;;;;;;;8.35;4.40;;;19.60;1.00;;;;;;4934744;29;20046;-49
2023/03/12 14:04:17;;;;;;;6.13;4.07;;;19.40;1.00;;;;;;4935559;29;20474;-54
2023/03/12 14:07:13;;;;;;;9.40;5.65;;;19.30;1.00;;;;;;4935223;29;20027;-49
2023/03/12 14:10:17;;;;;;;9.25;4.93;;;19.30;1.00;;;;;;4934745;29;20031;-53
2023/03/12 14:13:07;;;;;;;6.35;4.47;;;19.20;1.00;;;;;;4926464;29;20028;-53
2023/03/12 14:15:49;;;;;;;6.82;3.65;;;19.20;1.00;;;;;;4929376;29;20063;-52
2023/03/12 14:18:21;;;;;;;9.13;3.70;;;19.10;1.00;;;;;;4924387;29;20028;-51
2023/03/12 14:20:57;;;;;;;10.10;4.38;;;19.10;1.00;;;;;;4921280;29;20032;-51
2023/03/12 14:23:28;;;;;;;6.50;3.83;;;19.00;1.00;;;;;;4933972;29;20374;-50
2023/03/12 14:25:58;;;;;;;5.60;3.63;;;19.00;1.00;;;;;;4935319;29;20083;-54
2023/03/12 14:28:24;;;;;;;7.50;3.72;;;18.90;1.00;;;;;;4935193;29;20032;-52
2023/03/12 14:31:03;;;;;;;7.97;3.10;;;18.90;1.00;;;;;;4935303;29;20501;-50
2023/03/12 14:33:45;;;;;;;7.22;3.88;;;18.80;1.00;;;;;;4935377;29;20042;-52
2023/03/12 14:36:20;;;;;;;5.25;3.90;;;18.80;1.00;;;;;;4934568;29;20036;-49
2023/03/12 14:38:48;;;;;;;11.60;4.43;;;18.80;1.00;;;;;;4934670;29;20524;-49
2023/03/12 14:41:32;;;;;;;9.57;3.80;;;18.80;1.00;;;;;;4934220;29;20457;-53
2023/03/12 14:44:11;;;;;;;;;;;18.80;1.00;;;;;;4935280;29;20055;-55
2023/03/12 14:46:46;;;;;;;9.50;4.05;;;18.80;1.00;;;;;;4934509;29;19978;-49
2023/03/12 14:49:19;;;;;;;8.32;3.88;;;18.90;1.00;;;;;;4934282;29;20035;-52
2023/03/12 14:51:45;;;;;;;7.15;3.65;;;19.00;1.00;;;;;;4935734;29;20497;-56
2023/03/12 14:54:26;;;;;;;9.18;3.90;;;19.00;1.00;;;;;;4935868;29;20083;-50
2023/03/12 14:56:51;;;;;;;8.95;3.85;;;19.10;1.00;;;;;;4929631;29;20032;-49
2023/03/12 14:59:37;;;;;;;8.10;4.97;;;19.20;1.00;;;;;;4935700;29;20051;-53
2023/03/12 15:02:12;;;;;;;9.07;4.63;;;19.30;1.00;;;;;;4929330;29;20056;-50
2023/03/12 15:04:38;;;;;;;8.40;3.95;;;19.30;1.00;;;;;;4936900;29;20040;-53
2023/03/12 15:07:08;;;;;;;7.65;4.00;;;19.40;1.00;;;;;;4929902;29;20034;-52
2023/03/12 15:09:35;;;;;;;7.85;4.38;;;19.60;1.00;;;;;;4937491;29;20043;-50
2023/03/12 15:12:04;;;;;;;8.90;3.92;;;19.70;1.00;;;;;;4936764;29;20027;-55
2023/03/12 15:14:36;;;;;;;6.40;3.85;;;19.80;1.00;;;;;;4937375;29;20052;-51
2023/03/12 15:17:03;;;;;;;10.10;4.28;;;19.80;1.00;;;;;;4930898;29;20019;-54
2023/03/12 15:19:34;;;;;;;7.25;4.32;;;20.00;1.00;;;;;;4937070;29;20063;-54
2023/03/12 15:22:02;;;;;;;7.32;4.70;;;20.00;1.00;;;;;;4936586;29;20552;-52
2023/03/12 15:24:33;;;;;;;6.30;4.32;;;20.10;1.00;;;;;;4935044;29;20196;-54
2023/03/12 15:27:27;;;;;;;6.22;4.18;;;20.10;1.00;;;;;;4937100;29;20097;-56
2023/03/12 15:29:53;;;;;;;10.10;4.65;;;20.10;1.00;;;;;;4930737;29;20443;-54
2023/03/12 15:32:23;;;;;;;8.30;3.78;;;20.10;1.00;;;;;;4937058;29;20102;-50
2023/03/12 15:34:50;;;;;;;7.55;4.20;;;20.10;1.00;;;;;;4923535;29;20043;-55
2023/03/12 15:37:36;;;;;;;5.95;4.45;;;20.00;1.00;;;;;;4935686;29;20043;-53
2023/03/12 15:40:05;;;;;;;8.18;4.28;;;20.00;1.00;;;;;;4924945;29;20485;-53
2023/03/12 15:42:43;;;;;;;10.70;5.68;;;20.00;1.00;;;;;;4929074;29;20099;-49
2023/03/12 15:45:36;;;;;;;9.80;4.03;;;20.00;1.00;;;;;;4924512;29;20055;-52
2023/03/12 15:48:14;;;;;;;8.00;3.90;;;20.00;1.00;;;;;;4933800;29;20027;-54
2023/03/12 15:50:42;;;;;;;8.30;3.95;;;19.90;1.00;;;;;;4916197;29;20534;-50
2023/03/12 15:53:11;;;;;;;6.45;4.38;;;19.80;1.00;;;;;;4924313;29;20134;-51
2023/03/12 15:55:38;;;;;;;9.30;4.15;;;19.80;1.00;;;;;;4928070;29;20126;-51
2023/03/12 15:58:25;;;;;;;9.20;3.92;;;19.80;1.00;;;;;;4935666;29;20533;-50
2023/03/12 16:00:51;;;;;;;8.45;4.20;;;19.70;1.00;;;;;;4918607;29;20040;-51
2023/03/12 16:03:19;;;;;;;9.80;4.50;;;19.60;1.00;;;;;;4936361;29;20508;-49
2023/03/12 16:05:47;;;;;;;7.38;4.35;;;19.50;1.00;;;;;;4934247;29;20409;-49
2023/03/12 16:08:24;;;;;;;7.57;4.57;;;19.20;1.00;;;;;;4932619;29;20039;-50
2023/03/12 16:10:51;;;;;;;6.85;4.53;;;19.00;1.00;;;;;;4929203;29;20122;-49
2023/03/12 16:13:20;;;;;;;11.68;4.72;;;18.90;1.00;;;;;;4930255;29;20032;-50
2023/03/12 16:15:46;;;;;;;9.55;5.07;;;18.70;1.00;;;;;;4932504;29;20482;-54
2023/03/12 16:18:14;;;;;;;7.10;4.25;;;18.60;1.00;;;;;;4932257;29;20047;-50
2023/03/12 16:20:40;;;;;;;6.53;5.63;;;18.50;1.00;;;;;;4929371;29;20035;-51
2023/03/12 16:23:05;;;;;;;9.07;5.25;;;18.40;1.00;;;;;;4932395;29;20044;-51
2023/03/12 16:25:31;;;;;;;9.35;4.68;;;18.40;1.00;;;;;;4931256;29;20039;-50
2023/03/12 16:28:02;;;;;;;9.77;5.05;;;18.40;1.00;;;;;;4934255;28;20406;-52
2023/03/12 16:30:35;;;;;;;8.25;4.25;;;18.30;1.00;;;;;;4933930;29;20046;-53
2023/03/12 16:33:03;;;;;;;11.33;5.03;;;18.30;1.00;;;;;;4933523;29;20040;-52
2023/03/12 16:35:32;;;;;;;7.90;5.93;;;18.10;1.00;;;;;;4932191;29;20382;-52
2023/03/12 16:38:02;;;;;;;9.93;4.80;;;18.10;1.00;;;;;;4935510;29;20036;-52
2023/03/12 16:40:30;;;;;;;6.38;5.05;;;18.00;1.00;;;;;;4935659;29;20055;-50
2023/03/12 16:42:59;;;;;;;9.60;5.10;;;18.00;1.00;;;;;;4925942;29;20040;-54
2023/03/12 16:45:26;;;;;;;6.75;4.75;;;18.00;1.00;;;;;;4925008;29;20128;-52
2023/03/12 16:48:01;;;;;;;10.05;5.43;;;17.90;1.00;;;;;;4932027;29;20042;-50
2023/03/12 16:50:27;;;;;;;7.82;4.18;;;18.00;1.00;;;;;;4930698;29;20438;-54
2023/03/12 16:52:53;;;;;;;11.00;4.75;;;18.00;1.00;;;;;;4931637;29;20044;-49
2023/03/12 16:55:20;;;;;;;7.63;4.78;;;17.90;1.00;;;;;;4928889;29;20039;-53
2023/03/12 16:57:51;;;;;;;13.73;4.13;;;17.80;1.00;;;;;;4929237;29;20039;-50
2023/03/12 17:00:22;;;;;;;13.25;4.60;;;17.80;1.00;;;;;;4928071;29;20040;-53
2023/03/12 17:02:51;;;;;;;6.35;4.20;;;17.70;1.00;;;;;;4931341;29;20381;-66
2023/03/12 17:05:16;;;;;;;13.27;10.25;;;17.70;1.00;;;;;;4931787;29;20035;-68
2023/03/12 17:07:42;;;;;;;9.13;6.07;;;17.70;1.00;;;;;;4933501;29;20024;-69
2023/03/12 17:10:09;;;;;;;8.85;4.70;;;17.70;1.00;;;;;;4927896;29;20106;-63
2023/03/12 17:12:39;;;;;;;8.98;4.88;;;17.60;1.00;;;;;;4931291;29;20127;-64
2023/03/12 17:15:34;;;;;;;11.88;6.05;;;17.60;1.00;;;;;;4929315;29;20404;-60
2023/03/12 17:18:02;;;;;;;9.95;6.47;;;17.60;1.00;;;;;;4927480;29;20119;-68
2023/03/12 17:20:34;;;;;;;11.15;6.25;;;17.50;1.00;;;;;;4933798;29;20437;-68
2023/03/12 17:23:01;;;;;;;8.32;4.55;;;17.50;1.00;;;;;;4931820;29;20110;-66
2023/03/12 17:25:30;;;;;;;10.68;5.45;;;17.40;1.00;;;;;;4929231;29;20019;-60
2023/03/12 17:27:56;;;;;;;16.88;9.93;;;17.40;1.00;;;;;;4931501;29;20387;-62
2023/03/12 17:30:22;;;;;;;9.95;7.15;;;17.40;1.00;;;;;;4931885;29;20027;-64
2023/03/12 17:32:49;;;;;;;10.27;5.13;;;17.30;1.00;;;;;;4932026;29;20075;-62
2023/03/12 17:35:27;;;;;;;7.78;4.18;;;17.30;1.00;;;;;;4930736;29;20055;-60
2023/03/12 17:37:52;;;;;;;12.02;7.38;;;17.30;1.00;;;;;;4930010;29;20035;-59
2023/03/12 17:40:18;;;;;;;12.63;5.75;;;17.30;1.00;;;;;;4929324;29;20088;-57
2023/03/12 17:42:44;;;;;;;10.98;5.05;;;17.20;1.00;;;;;;4931019;29;20416;-60
2023/03/12 17:45:10;;;;;;;10.13;5.65;;;17.20;1.00;;;;;;4929316;29;20082;-59
2023/03/12 17:47:36;;;;;;;6.65;4.18;;;17.20;1.00;;;;;;4931154;29;20492;-56
2023/03/12 17:50:06;;;;;;;10.68;4.90;;;17.10;1.00;;;;;;4930389;29;20023;-50
2023/03/12 17:52:32;;;;;;;15.57;5.90;;;17.10;1.00;;;;;;4946782;29;20516;-49
2023/03/12 17:54:59;;;;;;;7.90;4.72;;;17.10;1.00;;;;;;4928008;29;20040;-61
2023/03/12 17:57:25;;;;;;;9.20;5.38;;;17.00;1.00;;;;;;4930079;29;20038;-58
2023/03/12 17:59:51;;;;;;;12.43;4.70;;;17.00;1.00;;;;;;4931528;29;20357;-64
2023/03/12 18:02:16;;;;;;;8.32;4.88;;;17.00;1.00;;;;;;4929612;29;20095;-62
2023/03/12 18:04:42;;;;;;;13.73;5.03;;;16.90;1.00;;;;;;4931626;29;20032;-65
2023/03/12 18:07:08;;;;;;;8.10;5.32;;;16.90;1.00;;;;;;4929073;29;20039;-63
2023/03/12 18:09:34;;;;;;;10.07;5.78;;;16.80;1.00;;;;;;4926602;29;20101;-62
2023/03/12 18:12:00;;;;;;;9.13;5.05;;;16.90;1.00;;;;;;4933245;29;20035;-67
2023/03/12 18:14:25;;;;;;;10.13;5.88;;;16.80;1.00;;;;;;4932503;29;20092;-62
2023/03/12 18:16:51;;;;;;;9.85;6.43;;;16.80;1.00;;;;;;4929111;29;20526;-56
2023/03/12 18:19:17;;;;;;;11.65;5.07;;;16.80;1.00;;;;;;4932998;29;20362;-58
2023/03/12 18:21:43;;;;;;;24.35;14.13;;;16.70;1.00;;;;;;4926130;29;20039;-59
2023/03/12 18:24:59;;;;;;;12.43;6.68;;;16.70;1.00;;;;;;4929661;29;20066;-78
2023/03/12 18:27:25;;;;;;;14.73;6.25;;;16.70;1.00;;;;;;4929447;29;20031;-65
2023/03/12 18:29:51;;;;;;;11.15;6.03;;;16.60;1.00;;;;;;4934420;29;20485;-65
2023/03/12 18:32:16;;;;;;;11.23;5.68;;;16.70;1.00;;;;;;4935963;29;20128;-64
2023/03/12 18:34:42;;;;;;;10.77;5.43;;;16.60;1.00;;;;;;4930505;29;20052;-62
2023/03/12 18:37:07;;;;;;;11.52;5.53;;;16.60;1.00;;;;;;4935697;29;20050;-61
2023/03/12 18:39:33;;;;;;;9.25;5.68;;;16.60;1.00;;;;;;4929172;29;20039;-62
2023/03/12 18:41:59;;;;;;;10.07;5.45;;;16.60;1.00;;;;;;4929094;29;20027;-59
2023/03/12 18:44:24;;;;;;;11.43;6.00;;;16.60;1.00;;;;;;4930147;29;20028;-53
2023/03/12 18:47:43;;;;;;;9.07;5.25;;;16.50;1.00;;;;;;4936616;29;20493;-56
2023/03/12 18:50:10;;;;;;;9.45;5.97;;;16.50;1.00;;;;;;4936184;29;20535;-52
2023/03/12 18:52:36;;;;;;;12.70;6.13;;;16.40;1.00;;;;;;4936609;29;20600;-59
2023/03/12 18:55:03;;;;;;;13.75;6.10;;;16.40;1.00;;;;;;4932398;29;20090;-52
2023/03/12 18:57:29;;;;;;;10.40;6.70;;;16.40;1.00;;;;;;4931263;29;20438;-51
2023/03/12 18:59:55;;;;;;;12.15;6.55;;;16.40;1.00;;;;;;4936399;29;20050;-50
2023/03/12 19:02:22;;;;;;;15.65;6.40;;;16.40;1.00;;;;;;4937809;29;20481;-53
2023/03/12 19:04:49;;;;;;;11.18;6.28;;;16.30;1.00;;;;;;4932978;29;20020;-51
2023/03/12 19:07:18;;;;;;;11.68;6.68;;;16.30;1.00;;;;;;4919365;29;20561;-68
2023/03/12 19:09:44;;;;;;;12.48;6.65;;;16.30;1.00;;;;;;4919752;29;20039;-66
2023/03/12 19:12:10;;;;;;;9.88;6.18;;;16.30;1.00;;;;;;4928413;29;20516;-64
2023/03/12 19:14:36;;;;;;;11.55;6.25;;;16.30;1.00;;;;;;4930214;29;20063;-58
2023/03/12 19:17:01;;;;;;;9.20;6.47;;;16.30;1.00;;;;;;4919201;29;20031;-60
2023/03/12 19:19:27;;;;;;;13.73;7.28;;;16.30;1.00;;;;;;4925543;29;20307;-66
2023/03/12 19:21:52;;;;;;;18.58;6.65;;;16.20;1.00;;;;;;4919444;29;20462;-64
2023/03/12 19:24:18;;;;;;;12.65;7.10;;;16.20;1.00;;;;;;4929375;29;20066;-69
2023/03/12 19:26:44;;;;;;;11.10;7.05;;;16.10;1.00;;;;;;4921064;29;20020;-75
2023/03/12 19:29:09;;;;;;;8.95;5.85;;;16.10;1.00;;;;;;4926584;29;20050;-70
2023/03/12 19:31:35;;;;;;;15.38;7.95;;;16.10;1.00;;;;;;4922815;29;20036;-57
2023/03/12 19:34:01;;;;;;;12.75;7.32;;;16.10;1.00;;;;;;4930359;29;20035;-59
2023/03/12 19:36:26;;;;;;;20.10;10.75;;;16.00;1.00;;;;;;4928577;29;20104;-58
2023/03/12 19:38:52;;;;;;;14.23;7.78;;;16.00;1.00;;;;;;4937104;29;20032;-66
2023/03/12 19:41:18;;;;;;;11.60;7.10;;;16.00;1.00;;;;;;4937492;29;20024;-71
2023/03/12 19:43:43;;;;;;;17.70;9.85;;;15.90;1.00;;;;;;4935860;29;20063;-73
2023/03/12 19:46:09;;;;;;;13.57;8.63;;;16.00;1.00;;;;;;4922965;29;20059;-67
2023/03/12 19:48:34;;;;;;;18.15;9.13;;;16.00;1.00;;;;;;4936721;29;20461;-69
2023/03/12 19:51:05;;;;;;;24.02;10.18;;;15.90;1.00;;;;;;4936019;29;20039;-70
2023/03/12 19:53:31;;;;;;;15.93;9.43;;;15.90;1.00;;;;;;4936651;29;20071;-69
2023/03/12 19:55:56;;;;;;;13.02;7.47;;;15.90;1.00;;;;;;4936009;29;20082;-68
2023/03/12 19:58:22;;;;;;;10.13;6.63;;;15.90;1.00;;;;;;4936882;29;20075;-66
2023/03/12 20:00:48;;;;;;;14.85;7.75;;;15.90;1.00;;;;;;4937279;29;20036;-64
2023/03/12 20:03:14;;;;;;;11.80;7.55;;;15.90;1.00;;;;;;4936795;29;20016;-62
2023/03/12 20:05:44;;;;;;;13.18;8.18;;;15.90;1.00;;;;;;4925571;29;20509;-62
2023/03/12 20:08:10;;;;;;;11.55;6.45;;;15.90;1.00;;;;;;4919660;29;20036;-62
2023/03/12 20:10:36;;;;;;;12.00;6.63;;;15.80;1.00;;;;;;4929166;29;20035;-70
2023/03/12 20:13:02;;;;;;;10.52;6.15;;;15.80;1.00;;;;;;4920980;29;20031;-63
2023/03/12 20:15:28;;;;;;;12.40;6.82;;;15.80;1.00;;;;;;4935207;29;20050;-65
2023/03/12 20:17:55;;;;;;;13.32;6.47;;;15.70;1.00;;;;;;4935023;29;20048;-69
2023/03/12 20:20:21;;;;;;;17.55;8.30;;;15.70;1.00;;;;;;4936654;29;20042;-63
2023/03/12 20:22:47;;;;;;;18.08;9.45;;;15.70;1.00;;;;;;4937029;29;20497;-62
2023/03/12 20:25:13;;;;;;;19.27;9.05;;;15.60;1.00;;;;;;4934350;29;20032;-62
2023/03/12 20:27:39;;;;;;;16.73;8.93;;;15.50;1.00;;;;;;4933891;29;20028;-64
2023/03/12 20:30:05;;;;;;;17.27;9.77;;;15.60;1.00;;;;;;4925283;29;20172;-62
2023/03/12 20:32:31;;;;;;;16.48;8.90;;;15.60;1.00;;;;;;4920973;29;20493;-58
2023/03/12 20:34:56;;;;;;;14.80;9.10;;;15.60;1.00;;;;;;4926003;29;20040;-62
2023/03/12 20:37:22;;;;;;;11.48;6.43;;;15.60;1.00;;;;;;4926900;29;20370;-57
2023/03/12 20:39:48;;;;;;;16.85;9.40;;;15.60;1.00;;;;;;4933276;29;20528;-59
2023/03/12 20:42:13;;;;;;;16.52;9.65;;;15.60;1.00;;;;;;4928264;29;20047;-63
2023/03/12 20:44:39;;;;;;;12.80;7.28;;;15.60;1.00;;;;;;4935020;29;20035;-67
2023/03/12 20:47:05;;;;;;;16.95;8.60;;;15.50;1.00;;;;;;4932302;29;20024;-49
2023/03/12 20:49:30;;;;;;;13.80;8.10;;;15.50;1.00;;;;;;4934712;29;20127;-51
2023/03/12 20:51:56;;;;;;;12.90;7.07;;;15.40;1.00;;;;;;4922186;29;20029;-64
2023/03/12 20:54:22;;;;;;;15.10;7.50;;;15.50;1.00;;;;;;4926376;29;20047;-66
2023/03/12 20:56:48;;;;;;;15.82;8.75;;;15.40;1.00;;;;;;4920072;29;20071;-70
2023/03/12 20:59:22;;;;;;;13.65;7.53;;;15.40;1.00;;;;;;4922006;29;20074;-65
2023/03/12 21:01:48;;;;;;;11.55;6.65;;;15.30;1.00;;;;;;4922768;29;20040;-72
2023/03/12 21:04:14;;;;;;;11.88;6.78;;;15.40;1.00;;;;;;4933911;29;20098;-68
2023/03/12 21:06:40;;;;;;;14.93;7.35;;;15.30;1.00;;;;;;4925180;29;20135;-73
2023/03/12 21:09:06;;;;;;;15.48;7.57;;;15.30;1.00;;;;;;4922936;29;20624;-71
2023/03/12 21:11:31;;;;;;;11.13;6.60;;;15.30;1.00;;;;;;4926734;29;20379;-65
2023/03/12 21:13:57;;;;;;;14.55;7.07;;;15.20;1.00;;;;;;4928359;29;20036;-60
2023/03/12 21:16:23;;;;;;;15.02;6.75;;;15.20;1.00;;;;;;4917161;29;20040;-60
2023/03/12 21:18:53;;;;;;;13.40;7.75;;;15.20;1.00;;;;;;4929682;29;20106;-60
2023/03/12 21:21:19;;;;;;;11.15;6.93;;;15.20;1.00;;;;;;4929584;29;20486;-61
2023/03/12 21:23:44;;;;;;;13.02;7.00;;;15.10;1.00;;;;;;4923529;29;20107;-61
2023/03/12 21:26:10;;;;;;;11.45;8.80;;;15.20;1.00;;;;;;4923730;29;20031;-61
2023/03/12 21:28:36;;;;;;;19.60;8.70;;;15.20;1.00;;;;;;4916946;29;20505;-69
2023/03/12 21:31:10;;;;;;;12.45;8.85;;;15.20;1.00;;;;;;4929118;29;20039;-70
2023/03/12 21:33:36;;;;;;;13.77;8.18;;;15.10;1.00;;;;;;4916930;29;20088;-66
2023/03/12 21:36:07;;;;;;;12.10;7.90;;;15.10;1.00;;;;;;4930305;29;20047;-65
2023/03/12 21:38:36;;;;;;;11.07;7.85;;;15.10;1.00;;;;;;4934289;29;20378;-56
2023/03/12 21:41:06;;;;;;;13.20;8.25;;;15.00;1.00;;;;;;4919511;29;20508;-52
2023/03/12 21:47:06;;;;;;;11.93;7.88;;;15.00;1.00;;;;;;4927658;29;20043;-53
2023/03/12 21:49:36;;;;;;;12.40;7.57;;;15.00;1.00;;;;;;4916523;29;20039;-50
2023/03/12 21:52:03;;;;;;;15.13;7.50;;;14.90;1.00;;;;;;4916590;29;20470;-54
2023/03/12 21:54:33;;;;;;;12.32;8.25;;;14.90;1.00;;;;;;4918006;29;20054;-53
2023/03/12 21:57:00;;;;;;;11.48;7.80;;;14.90;1.00;;;;;;4930596;29;20047;-64
2023/03/12 21:59:27;;;;;;;14.15;7.50;;;14.90;1.00;;;;;;4927801;29;20075;-56
2023/03/12 22:01:53;;;;;;;15.35;8.10;;;14.80;1.00;;;;;;4935433;29;20102;-61
2023/03/12 22:04:19;;;;;;;12.73;7.93;;;14.80;1.00;;;;;;4922586;29;20027;-61
2023/03/12 22:06:45;;;;;;;12.77;7.38;;;14.80;1.00;;;;;;4938108;29;20023;-61
2023/03/12 22:09:11;;;;;;;11.75;7.28;;;14.80;1.00;;;;;;4936560;29;21473;-61
2023/03/12 22:11:36;;;;;;;12.57;7.10;;;14.80;1.00;;;;;;4938396;29;20027;-61
2023/03/12 22:14:02;;;;;;;11.90;7.88;;;14.70;1.00;;;;;;4938103;29;20496;-62
2023/03/12 22:16:30;;;;;;;12.77;7.78;;;14.70;1.00;;;;;;4937599;29;20114;-62
2023/03/12 22:18:56;;;;;;;13.65;7.10;;;14.70;1.00;;;;;;4937162;29;20042;-62
2023/03/12 22:21:22;;;;;;;9.18;6.47;;;14.70;1.00;;;;;;4938616;29;20028;-62
2023/03/12 22:23:51;;;;;;;12.75;7.45;;;14.70;1.00;;;;;;4936691;29;20541;-62
2023/03/12 22:26:20;;;;;;;12.75;6.93;;;14.60;1.00;;;;;;4938745;29;20027;-62
2023/03/12 22:28:51;;;;;;;12.50;7.45;;;14.60;1.00;;;;;;4937247;29;20095;-62
2023/03/12 22:31:18;;;;;;;12.27;7.88;;;14.60;1.00;;;;;;4938804;29;20393;-62
2023/03/12 22:33:44;;;;;;;12.65;7.28;;;14.60;1.00;;;;;;4936499;29;20036;-61
2023/03/12 22:36:11;;;;;;;14.98;8.02;;;14.60;1.00;;;;;;4938142;29;20132;-62
2023/03/12 22:38:38;;;;;;;11.02;6.90;;;14.60;1.00;;;;;;4930259;29;20032;-62
2023/03/12 22:41:14;;;;;;;12.60;7.50;;;14.50;1.00;;;;;;4932076;29;20086;-62
2023/03/12 22:43:40;;;;;;;14.15;7.40;;;14.50;1.00;;;;;;4931384;29;20038;-62
2023/03/12 22:46:06;;;;;;;12.88;7.25;;;14.40;1.00;;;;;;4936397;29;20031;-64
2023/03/12 22:48:32;;;;;;;14.52;7.55;;;14.50;1.00;;;;;;4929343;29;20097;-63
2023/03/12 22:50:57;;;;;;;12.80;7.20;;;14.40;1.00;;;;;;4936945;29;20430;-62
2023/03/12 22:53:23;;;;;;;9.85;7.30;;;14.40;1.00;;;;;;4937208;29;20047;-62
2023/03/12 22:55:57;;;;;;;10.77;8.30;;;14.40;1.00;;;;;;4938447;29;20044;-62
2023/03/12 22:58:22;;;;;;;11.85;7.82;;;14.40;1.00;;;;;;4937967;29;20090;-62
2023/03/12 23:00:48;;;;;;;12.88;7.75;;;14.30;1.00;;;;;;4937635;29;20031;-62
2023/03/12 23:03:14;;;;;;;13.85;8.48;;;14.30;1.00;;;;;;4938664;29;20027;-62
2023/03/12 23:05:39;;;;;;;10.85;7.35;;;14.30;1.00;;;;;;4936242;29;20027;-61
2023/03/12 23:08:05;;;;;;;12.70;7.78;;;14.30;1.00;;;;;;4938532;29;20028;-62
2023/03/12 23:10:31;;;;;;;12.73;7.50;;;14.20;1.00;;;;;;4937350;29;20393;-63
2023/03/12 23:12:56;;;;;;;10.18;6.93;;;14.20;1.00;;;;;;4936912;29;20028;-63
2023/03/12 23:15:22;;;;;;;9.32;6.63;;;14.20;1.00;;;;;;4937414;29;20098;-62
2023/03/12 23:17:48;;;;;;;13.65;7.28;;;14.10;1.00;;;;;;4924320;29;20478;-62
2023/03/12 23:20:13;;;;;;;12.23;7.43;;;14.10;1.00;;;;;;4938182;29;20517;-62
2023/03/12 23:22:39;;;;;;;11.93;7.47;;;14.10;1.00;;;;;;4937548;29;20042;-62
2023/03/12 23:25:05;;;;;;;12.52;7.03;;;14.00;1.00;;;;;;4937960;29;20030;-62
2023/03/12 23:27:30;;;;;;;11.77;7.47;;;14.00;1.00;;;;;;4936818;29;20043;-63
2023/03/12 23:29:56;;;;;;;11.25;7.68;;;14.00;1.00;;;;;;4937183;29;20027;-62
2023/03/12 23:32:22;;;;;;;13.50;7.88;;;14.00;1.00;;;;;;4936808;29;20032;-63
2023/03/12 23:34:47;;;;;;;12.88;7.18;;;14.00;1.00;;;;;;4935358;29;20040;-62
2023/03/12 23:37:13;;;;;;;11.05;7.25;;;13.90;1.00;;;;;;4937898;29;20055;-63
2023/03/12 23:39:39;;;;;;;11.85;7.38;;;13.90;1.00;;;;;;4928196;29;20036;-63
2023/03/12 23:42:05;;;;;;;12.10;7.30;;;13.90;1.00;;;;;;4926681;29;20036;-62
2023/03/12 23:44:30;;;;;;;13.05;7.30;;;13.80;1.00;;;;;;4936862;29;20082;-63
2023/03/12 23:46:56;;;;;;;11.77;6.75;;;13.70;1.00;;;;;;4926508;29;20490;-62
2023/03/12 23:49:22;;;;;;;11.07;7.53;;;13.70;1.00;;;;;;4935645;29;20164;-63
2023/03/12 23:51:47;;;;;;;12.93;7.05;;;13.70;1.00;;;;;;4936396;29;20481;-63
2023/03/12 23:54:14;;;;;;;12.02;6.95;;;13.70;1.00;;;;;;4936599;29;20043;-63
2023/03/12 23:56:40;;;;;;;9.32;6.63;;;13.70;1.00;;;;;;4937435;29;20497;-63
2023/03/12 23:59:08;;;;;;;14.32;6.95;;;13.60;1.00;;;;;;4937101;29;20024;-63
